Hovedside
METAR-TAF:

METAR-TAF

Lufthavner :

Bamako-Sénou internasjonale lufthavn

Bamako, Mali

breddegrad: 12-32N, lengdegrad: 007-57W, høyde over havet: 380 m

Gjeldene værobservasjon

Denne rapporten ble laget for 30 minutter siden, klokken 08:00 UTC
Vind 1 kt fra skiftende retning
Temperatur 24°C
Luftfuktighet 47%
Trykk 1013 hPa
Sikt: 8000 m

METAR: GABS 130800Z VRB01KT 8000 NSC 24/12 Q1013 NOSIG

Tid: 08:30 (08:30 UTC)

Varsel

Denne rapporten ble laget for 3 timer og 10 minutter siden, klokken 05:20 UTC
Varsel gyldig fra 13. klokken 06 UTC til 14. klokken 12 UTC
Vind 8 kt fra Øst-nordøst
Sikt: 8000 m

TAF: GABS 130520Z 1306/1412 07008KT 8000 NSC

Værobservasjoner og værvarsel for over 4000 flyplasser (METAR- og TAF-rapporter).

Tilgjengelige stasjoner er representert av de røde og gule prikkene på kartet.

Hold musepekeren over prikken for å se navnet på stasjonen.

Klikk så for å se værobservasjoner og -varsler.

For å forandre kartet kan du klikke på den grønne knappen med svart kryss for å zoome inn, på den grønne knappen med strek for å zoome ut, eller på de grønne pilene for å se tilstøtende kart.


METAR-TAF: